createdAt,value
2023-03-06T00:30:11.588Z,94268.00
2023-03-06T00:33:11.637Z,94266.00
2023-03-06T00:34:11.743Z,94264.00
2023-03-06T00:35:11.786Z,94266.00
2023-03-06T00:36:11.734Z,94266.00
2023-03-06T00:43:01.382Z,94259.00
2023-03-06T00:44:01.085Z,94261.00
2023-03-06T00:45:01.197Z,94259.00
2023-03-06T00:46:01.237Z,94257.00
2023-03-06T00:47:01.169Z,94257.00
2023-03-06T00:48:01.270Z,94257.00
2023-03-06T00:49:01.271Z,94253.00
2023-03-06T00:50:01.328Z,94255.00
2023-03-06T00:51:01.399Z,94251.00
2023-03-06T00:52:01.350Z,94253.00
2023-03-06T00:53:01.388Z,94251.00
2023-03-06T00:54:01.482Z,94247.00
2023-03-06T00:55:01.404Z,94247.00
2023-03-06T00:56:01.435Z,94245.00
2023-03-06T00:57:01.478Z,94245.00
2023-03-06T00:58:01.485Z,94245.00
2023-03-06T00:59:01.463Z,94243.00
2023-03-06T01:09:29.998Z,94231.00
2023-03-06T01:11:29.668Z,94235.00
2023-03-06T01:15:29.827Z,94223.00
2023-03-06T01:30:30.066Z,94206.00
2023-03-06T01:31:29.946Z,94207.00
2023-03-06T01:32:29.991Z,94204.00
2023-03-06T01:33:29.943Z,94204.00
2023-03-06T01:34:29.971Z,94204.00
2023-03-06T01:36:29.911Z,94202.00
2023-03-06T01:37:29.876Z,94204.00
2023-03-06T01:38:29.924Z,94200.00
2023-03-06T01:39:29.981Z,94198.00
2023-03-06T01:40:30.036Z,94198.00
2023-03-06T01:41:29.916Z,94198.00
2023-03-06T01:43:29.964Z,94196.00
2023-03-06T01:44:29.994Z,94196.00
2023-03-06T01:45:30.016Z,94194.00
2023-03-06T01:46:29.918Z,94196.00
2023-03-06T01:47:30.079Z,94192.00
2023-03-06T01:48:29.919Z,94192.00
2023-03-06T01:50:29.886Z,94188.00
2023-03-06T01:52:29.894Z,94182.00
2023-03-06T01:53:29.949Z,94182.00
2023-03-06T01:55:30.029Z,94182.00
2023-03-06T01:56:29.901Z,94178.00
2023-03-06T01:57:29.992Z,94176.00
2023-03-06T01:58:29.803Z,94174.00
2023-03-06T01:59:29.852Z,94172.00
2023-03-06T02:00:29.873Z,94168.00
2023-03-06T02:01:29.917Z,94166.00
2023-03-06T02:02:30.033Z,94166.00
2023-03-06T02:03:29.887Z,94164.00
2023-03-06T02:04:30.910Z,94166.00
2023-03-06T02:05:29.909Z,94162.00
2023-03-06T02:06:29.899Z,94162.00
2023-03-06T02:07:29.849Z,94160.00
2023-03-06T02:08:29.890Z,94160.00
2023-03-06T02:09:29.937Z,94160.00
2023-03-06T02:10:29.971Z,94159.00
2023-03-06T02:11:29.983Z,94157.00
2023-03-06T02:12:29.795Z,94155.00
2023-03-06T02:13:29.946Z,94153.00
2023-03-06T02:14:29.933Z,94153.00
2023-03-06T02:15:29.820Z,94153.00
2023-03-06T02:16:29.861Z,94153.00
2023-03-06T02:17:29.893Z,94151.00
2023-03-06T02:18:29.801Z,94151.00
2023-03-06T02:19:29.893Z,94151.00
2023-03-06T02:20:29.890Z,94147.00
2023-03-06T02:21:29.867Z,94147.00
2023-03-06T02:22:29.796Z,94145.00
2023-03-06T02:23:29.828Z,94145.00
2023-03-06T02:24:29.872Z,94143.00
2023-03-06T02:25:29.966Z,94147.00
2023-03-06T02:27:48.802Z,94143.00
2023-03-06T02:28:49.010Z,94145.00
2023-03-06T02:32:38.416Z,94139.00
2023-03-06T02:33:38.050Z,94139.00
2023-03-06T02:34:38.158Z,94137.00
2023-03-06T02:35:38.110Z,94137.00
2023-03-06T02:36:38.132Z,94135.00
2023-03-06T02:37:38.150Z,94133.00
2023-03-06T02:38:38.168Z,94133.00
2023-03-06T02:39:38.164Z,94133.00
2023-03-06T02:40:38.280Z,94131.00
2023-03-06T02:41:38.211Z,94127.00
2023-03-06T02:42:38.184Z,94127.00
2023-03-06T02:43:38.212Z,94123.00
2023-03-06T02:44:38.186Z,94121.00
2023-03-06T02:45:38.201Z,94114.00
2023-03-06T02:46:38.182Z,94123.00
2023-03-06T02:47:38.207Z,94112.00
2023-03-06T02:48:38.184Z,94108.00
2023-03-06T02:49:38.235Z,94112.00
2023-03-06T02:50:38.237Z,94108.00
2023-03-06T02:51:38.333Z,94110.00
2023-03-06T02:52:38.309Z,94110.00
2023-03-06T02:53:38.323Z,94110.00
2023-03-06T02:54:38.380Z,94106.00
2023-03-06T04:55:18.071Z,93976.00
2023-03-06T04:56:18.141Z,93980.00
2023-03-06T04:57:18.229Z,93978.00
2023-03-06T04:58:17.931Z,93978.00
2023-03-06T04:59:18.002Z,93974.00
2023-03-06T05:00:18.052Z,93974.00
2023-03-06T05:01:18.101Z,93976.00
2023-03-06T05:02:18.028Z,93978.00
2023-03-06T05:37:02.476Z,93959.00
2023-03-06T05:38:02.566Z,93957.00
2023-03-06T05:39:02.502Z,93959.00
2023-03-06T05:40:02.652Z,93961.00
2023-03-06T05:41:02.445Z,93961.00
2023-03-06T05:42:02.399Z,93963.00
2023-03-06T05:43:02.374Z,93961.00
2023-03-06T05:44:02.365Z,93959.00
2023-03-06T05:45:02.422Z,93959.00
2023-03-06T05:46:02.447Z,93957.00
2023-03-06T05:47:02.427Z,93961.00
2023-03-06T05:48:02.368Z,93961.00
2023-03-06T05:49:02.366Z,93959.00
2023-03-06T07:35:13.745Z,93976.00
2023-03-06T07:36:02.204Z,93978.00
2023-03-06T07:44:01.572Z,93988.00
2023-03-06T07:47:01.548Z,93986.00
2023-03-06T08:05:53.891Z,93992.00
2023-03-06T08:06:53.540Z,93996.00
2023-03-06T08:14:28.634Z,93994.00
2023-03-06T08:15:22.765Z,93992.00
2023-03-06T08:16:21.329Z,93990.00
2023-03-06T08:27:25.894Z,93984.00
2023-03-06T08:32:03.449Z,93992.00
2023-03-06T08:48:58.066Z,93990.00
2023-03-06T08:54:24.136Z,93992.00
2023-03-06T08:55:24.784Z,93990.00
2023-03-06T08:56:23.734Z,93990.00
2023-03-06T08:57:25.097Z,93986.00
2023-03-06T08:58:23.832Z,93988.00
2023-03-06T08:59:23.772Z,93988.00
2023-03-06T09:00:23.864Z,93990.00
2023-03-06T09:01:23.359Z,93990.00
2023-03-06T09:02:23.952Z,93992.00
2023-03-06T09:15:01.462Z,93984.00
2023-03-06T09:16:00.876Z,93978.00
2023-03-06T09:17:01.759Z,93982.00
2023-03-06T09:18:01.659Z,93978.00
2023-03-06T09:29:23.492Z,93974.00
2023-03-06T09:30:23.222Z,93976.00
2023-03-06T09:31:22.772Z,93974.00
2023-03-06T09:32:22.743Z,93976.00
2023-03-06T09:33:22.766Z,93978.00
2023-03-06T09:34:22.951Z,93980.00
2023-03-06T09:36:59.138Z,93976.00
2023-03-06T10:52:10.078Z,93890.00
2023-03-06T11:05:29.318Z,93866.00
2023-03-06T12:23:44.956Z,93735.00
2023-03-06T12:33:22.980Z,93731.00
2023-03-06T12:35:41.790Z,93722.00
2023-03-06T13:51:32.103Z,93669.00
2023-03-06T13:52:32.693Z,93669.00
2023-03-06T14:24:07.144Z,93677.00
2023-03-06T14:25:06.921Z,93669.00
2023-03-06T14:26:07.143Z,93673.00
2023-03-06T14:37:44.617Z,93688.00
2023-03-06T14:38:44.873Z,93684.00
2023-03-06T14:39:45.150Z,93684.00
2023-03-06T14:42:04.152Z,93686.00
2023-03-06T14:48:00.699Z,93690.00
2023-03-06T14:53:39.713Z,93692.00
2023-03-06T14:55:58.136Z,93694.00
2023-03-06T14:56:58.135Z,93696.00
2023-03-06T14:57:57.907Z,93690.00
2023-03-06T14:58:58.153Z,93698.00
2023-03-06T14:59:58.022Z,93694.00
2023-03-06T15:00:58.355Z,93694.00
2023-03-06T15:01:58.020Z,93692.00
2023-03-06T15:09:59.486Z,93702.00
2023-03-06T15:12:42.572Z,93700.00
2023-03-06T15:16:59.701Z,93698.00
2023-03-06T15:17:57.200Z,93708.00
2023-03-06T15:18:56.450Z,93710.00
2023-03-06T15:19:56.593Z,93704.00
2023-03-06T15:39:20.814Z,93727.00
2023-03-06T15:40:20.899Z,93729.00
2023-03-06T15:41:20.937Z,93724.00
2023-03-06T15:42:20.934Z,93724.00
2023-03-06T15:43:21.056Z,93720.00
2023-03-06T15:45:21.005Z,93724.00
2023-03-06T15:46:21.040Z,93724.00
2023-03-06T18:06:30.374Z,93851.00
2023-03-06T18:12:49.753Z,93864.00
2023-03-06T18:18:55.770Z,93870.00
2023-03-06T18:47:53.527Z,93884.00
2023-03-06T18:54:53.320Z,93884.00
2023-03-06T18:57:12.347Z,93888.00
2023-03-06T18:58:12.205Z,93892.00
2023-03-06T19:00:32.061Z,93894.00
2023-03-06T19:02:49.577Z,93892.00
2023-03-06T19:37:37.681Z,93917.00
